createdAt,value
2023-06-29T00:00:33.109Z,61.50
2023-06-29T00:05:57.436Z,61.60
2023-06-29T00:11:01.134Z,62.00
2023-06-29T00:16:07.088Z,61.80
2023-06-29T00:21:10.597Z,62.00
2023-06-29T00:26:15.047Z,61.90
2023-06-29T00:31:23.512Z,61.90
2023-06-29T00:36:27.431Z,61.80
2023-06-29T00:41:30.874Z,61.80
2023-06-29T00:46:36.215Z,61.60
2023-06-29T00:51:39.942Z,61.80
2023-06-29T00:56:44.555Z,61.80
2023-06-29T01:01:49.547Z,62.10
2023-06-29T01:06:58.171Z,62.00
2023-06-29T01:12:03.687Z,61.90
2023-06-29T01:17:13.183Z,61.80
2023-06-29T01:22:21.658Z,63.00
2023-06-29T01:27:26.752Z,62.00
2023-06-29T01:32:36.366Z,62.20
2023-06-29T01:37:48.021Z,62.10
2023-06-29T01:42:53.279Z,62.20
2023-06-29T01:47:58.847Z,62.00
2023-06-29T01:53:02.554Z,62.20
2023-06-29T01:58:07.366Z,62.20
2023-06-29T02:03:10.937Z,62.20
2023-06-29T02:08:14.556Z,63.10
2023-06-29T02:13:19.702Z,62.30
2023-06-29T02:18:23.300Z,62.20
2023-06-29T02:23:26.891Z,62.00
2023-06-29T02:28:31.895Z,62.00
2023-06-29T02:33:38.679Z,62.00
2023-06-29T02:38:43.317Z,62.20
2023-06-29T02:43:48.139Z,62.30
2023-06-29T02:48:51.601Z,62.30
2023-06-29T02:53:55.082Z,62.30
2023-06-29T02:58:59.914Z,62.40
2023-06-29T03:04:03.410Z,62.40
2023-06-29T03:09:07.597Z,62.50
2023-06-29T03:14:12.904Z,63.00
2023-06-29T03:19:16.419Z,63.20
2023-06-29T03:24:19.869Z,63.60
2023-06-29T03:29:24.666Z,63.90
2023-06-29T03:34:28.499Z,64.00
2023-06-29T03:39:31.948Z,64.10
2023-06-29T03:44:37.712Z,63.80
2023-06-29T03:49:41.319Z,64.00
2023-06-29T03:54:45.047Z,64.10
2023-06-29T03:59:49.852Z,63.50
2023-06-29T04:04:53.265Z,63.20
2023-06-29T04:09:56.820Z,63.00
2023-06-29T04:15:01.611Z,62.80
2023-06-29T04:20:06.403Z,62.70
2023-06-29T04:25:10.042Z,62.90
2023-06-29T04:30:19.354Z,63.00
2023-06-29T04:35:22.799Z,62.80
2023-06-29T04:40:26.679Z,62.90
2023-06-29T04:45:32.948Z,63.00
2023-06-29T04:50:37.757Z,62.90
2023-06-29T04:55:41.476Z,62.90
2023-06-29T05:00:46.376Z,63.30
2023-06-29T05:05:49.953Z,63.50
2023-06-29T05:10:53.446Z,63.60
2023-06-29T05:15:58.237Z,63.80
2023-06-29T05:21:04.814Z,63.90
2023-06-29T05:26:10.414Z,63.70
2023-06-29T05:31:16.538Z,63.50
2023-06-29T05:36:21.036Z,64.50
2023-06-29T05:41:24.564Z,63.40
2023-06-29T05:46:29.452Z,63.20
2023-06-29T05:51:33.857Z,63.20
2023-06-29T05:56:37.350Z,63.30
2023-06-29T06:01:42.409Z,63.60
2023-06-29T06:06:46.250Z,64.60
2023-06-29T06:11:49.713Z,63.40
2023-06-29T06:16:57.311Z,63.30
2023-06-29T06:22:00.731Z,63.30
2023-06-29T06:27:04.448Z,63.20
2023-06-29T06:32:09.685Z,63.30
2023-06-29T06:37:13.307Z,63.20
2023-06-29T06:42:16.807Z,63.20
2023-06-29T06:47:22.194Z,63.20
2023-06-29T06:52:25.714Z,63.10
2023-06-29T06:57:29.891Z,63.00
2023-06-29T07:02:34.804Z,63.10
2023-06-29T07:07:39.034Z,63.20
2023-06-29T07:12:42.610Z,64.00
2023-06-29T07:17:47.541Z,63.10
2023-06-29T07:27:57.409Z,62.90
2023-06-29T07:33:02.521Z,62.90
2023-06-29T07:38:06.979Z,62.80
2023-06-29T07:43:10.692Z,62.80
2023-06-29T07:48:16.149Z,62.80
2023-06-29T07:53:19.679Z,62.70
2023-06-29T08:03:38.295Z,62.30
2023-06-29T08:08:47.955Z,61.70
2023-06-29T08:13:51.542Z,61.50
2023-06-29T08:18:56.389Z,61.40
2023-06-29T08:23:59.903Z,61.40
2023-06-29T08:29:03.510Z,62.30
2023-06-29T08:34:08.443Z,61.00
2023-06-29T08:39:14.747Z,60.80
2023-06-29T08:44:18.725Z,60.60
2023-06-29T08:49:24.567Z,60.40
2023-06-29T08:54:29.296Z,60.30
2023-06-29T08:59:33.896Z,60.00
2023-06-29T09:04:38.720Z,59.90
2023-06-29T09:09:42.271Z,59.70
2023-06-29T09:14:46.673Z,59.40
2023-06-29T09:19:55.916Z,59.30
2023-06-29T09:25:07.733Z,58.90
2023-06-29T09:30:22.945Z,58.70
2023-06-29T09:35:30.761Z,58.50
2023-06-29T09:40:47.153Z,58.20
2023-06-29T09:45:50.811Z,57.90
2023-06-29T09:50:57.123Z,57.40
2023-06-29T09:56:02.108Z,57.40
2023-06-29T10:01:05.858Z,56.90
2023-06-29T10:06:14.826Z,56.70
2023-06-29T10:11:18.934Z,56.40
2023-06-29T10:16:24.445Z,56.20
2023-06-29T10:21:29.425Z,56.00
2023-06-29T10:26:33.242Z,56.00
2023-06-29T10:31:36.779Z,55.80
2023-06-29T10:36:50.244Z,55.20
2023-06-29T10:41:53.887Z,54.30
2023-06-29T10:47:00.134Z,54.00
2023-06-29T10:52:06.494Z,53.80
2023-06-29T10:57:11.533Z,53.70
2023-06-29T11:02:15.625Z,53.70
2023-06-29T11:07:20.569Z,52.80
2023-06-29T11:12:24.099Z,52.20
2023-06-29T11:17:28.075Z,51.90
2023-06-29T11:22:32.891Z,52.30
2023-06-29T11:27:36.459Z,52.10
2023-06-29T11:32:41.431Z,51.70
2023-06-29T11:37:50.043Z,51.80
2023-06-29T11:42:54.935Z,51.50
2023-06-29T11:47:58.872Z,51.60
2023-06-29T11:53:03.700Z,51.70
2023-06-29T11:58:07.136Z,51.20
2023-06-29T12:03:12.386Z,50.70
2023-06-29T12:08:17.772Z,50.40
2023-06-29T12:13:24.610Z,49.40
2023-06-29T12:18:30.044Z,48.60
2023-06-29T12:23:36.089Z,49.00
2023-06-29T12:28:39.883Z,48.00
2023-06-29T12:33:43.336Z,48.40
2023-06-29T12:38:49.138Z,49.40
2023-06-29T12:43:52.579Z,49.60
2023-06-29T12:48:56.680Z,49.60
2023-06-29T12:54:01.667Z,49.10
2023-06-29T12:59:05.142Z,48.40
2023-06-29T13:04:09.241Z,47.50
2023-06-29T13:09:14.185Z,47.80
2023-06-29T13:14:17.674Z,48.40
2023-06-29T13:19:21.332Z,47.80
2023-06-29T13:24:26.280Z,47.20
2023-06-29T13:29:30.410Z,45.80
2023-06-29T13:34:35.062Z,46.40
2023-06-29T13:39:42.163Z,47.60
2023-06-29T13:44:45.843Z,45.60
2023-06-29T13:49:50.338Z,44.30
2023-06-29T13:54:55.275Z,44.00
2023-06-29T13:59:58.981Z,44.20
2023-06-29T14:05:02.471Z,44.60
2023-06-29T14:10:08.350Z,45.10
2023-06-29T14:15:12.774Z,45.30
2023-06-29T14:20:16.227Z,45.90
2023-06-29T14:25:21.317Z,46.10
2023-06-29T14:30:24.801Z,46.20
2023-06-29T14:35:32.061Z,46.20
2023-06-29T14:40:37.684Z,43.20
2023-06-29T14:45:41.340Z,39.90
2023-06-29T14:50:45.767Z,38.50
2023-06-29T14:55:52.511Z,37.00
2023-06-29T15:00:56.000Z,35.50
2023-06-29T15:05:59.861Z,34.80
2023-06-29T15:11:04.685Z,34.30
2023-06-29T15:16:08.488Z,33.90
2023-06-29T15:21:12.786Z,32.80
2023-06-29T15:26:17.738Z,33.00
2023-06-29T15:31:21.450Z,31.80
2023-06-29T15:36:24.999Z,31.10
2023-06-29T15:41:29.995Z,32.40
2023-06-29T15:46:34.989Z,33.80
2023-06-29T15:51:38.748Z,33.50
2023-06-29T15:56:47.221Z,31.60
2023-06-29T16:01:51.944Z,30.20
2023-06-29T16:06:55.517Z,29.50
2023-06-29T16:12:00.403Z,29.30
2023-06-29T16:17:04.020Z,28.50
2023-06-29T16:22:07.839Z,28.50
2023-06-29T16:27:13.134Z,28.60
2023-06-29T16:32:18.517Z,28.50
2023-06-29T16:37:22.083Z,28.40
2023-06-29T16:42:27.055Z,28.70
2023-06-29T16:47:30.892Z,29.40
2023-06-29T16:52:34.467Z,30.00
2023-06-29T16:57:39.542Z,30.80
2023-06-29T17:02:43.108Z,31.10
2023-06-29T17:07:47.317Z,31.30
2023-06-29T17:12:53.178Z,31.20
2023-06-29T17:17:56.870Z,31.50
2023-06-29T17:23:00.402Z,32.10
2023-06-29T17:28:05.526Z,32.10
2023-06-29T17:33:09.150Z,32.50
2023-06-29T17:38:12.989Z,31.40
2023-06-29T17:43:17.968Z,31.60
2023-06-29T17:48:21.447Z,32.00
2023-06-29T17:53:24.908Z,32.20
2023-06-29T17:58:29.815Z,32.30
2023-06-29T18:03:33.439Z,32.40
2023-06-29T18:08:37.232Z,32.70
2023-06-29T18:13:42.003Z,32.90
2023-06-29T18:18:45.437Z,32.90
2023-06-29T18:23:48.891Z,33.10
2023-06-29T18:28:54.011Z,33.50
2023-06-29T18:33:57.692Z,33.80
2023-06-29T18:39:01.478Z,34.00
2023-06-29T18:44:07.568Z,34.20
2023-06-29T18:49:11.690Z,34.50
2023-06-29T18:54:15.102Z,34.70
2023-06-29T18:59:19.899Z,34.80
2023-06-29T19:04:23.362Z,35.10
2023-06-29T19:09:29.409Z,35.30
2023-06-29T19:14:34.409Z,35.50
2023-06-29T19:19:38.256Z,35.80
2023-06-29T19:24:41.992Z,36.40
2023-06-29T19:29:46.785Z,36.90
2023-06-29T19:34:51.544Z,37.30
2023-06-29T19:39:55.047Z,37.60
2023-06-29T19:44:59.904Z,37.70
2023-06-29T19:50:04.905Z,37.90
2023-06-29T19:55:10.841Z,38.00
2023-06-29T20:00:16.393Z,38.20
2023-06-29T20:05:20.025Z,38.60
2023-06-29T20:10:24.068Z,38.90
2023-06-29T20:15:28.954Z,39.20
2023-06-29T20:20:33.555Z,39.40
2023-06-29T20:25:37.191Z,39.40
2023-06-29T20:30:42.416Z,39.50
2023-06-29T20:35:46.404Z,39.60
2023-06-29T20:40:50.351Z,39.60
2023-06-29T20:45:55.954Z,39.70
2023-06-29T20:51:11.831Z,39.80
2023-06-29T20:56:20.803Z,40.00
2023-06-29T21:01:25.980Z,40.10
2023-06-29T21:06:29.760Z,40.30
2023-06-29T21:11:34.989Z,40.30
2023-06-29T21:16:41.671Z,40.50
2023-06-29T21:21:45.379Z,40.90
2023-06-29T21:26:49.083Z,41.60
2023-06-29T21:31:56.867Z,42.00
2023-06-29T21:37:01.071Z,42.20
2023-06-29T21:42:04.964Z,42.10
2023-06-29T21:47:10.103Z,42.20
2023-06-29T21:52:13.614Z,42.30
2023-06-29T21:57:17.107Z,43.10
2023-06-29T22:02:22.186Z,42.00
2023-06-29T22:07:25.717Z,42.10
2023-06-29T22:12:29.743Z,42.10
2023-06-29T22:17:38.339Z,42.40
2023-06-29T22:22:41.914Z,42.40
2023-06-29T22:27:45.462Z,42.40
2023-06-29T22:32:52.937Z,42.50
2023-06-29T22:37:56.795Z,42.70
2023-06-29T22:43:00.341Z,43.10
2023-06-29T22:48:05.627Z,43.50
2023-06-29T22:53:09.342Z,43.70
2023-06-29T22:58:12.810Z,43.70
2023-06-29T23:03:17.668Z,43.80
2023-06-29T23:08:21.294Z,44.00
2023-06-29T23:13:26.059Z,44.30
2023-06-29T23:18:30.817Z,44.40
2023-06-29T23:23:34.638Z,44.50
2023-06-29T23:28:38.172Z,44.70
2023-06-29T23:33:43.058Z,44.90
2023-06-29T23:38:49.478Z,45.20
2023-06-29T23:43:52.920Z,45.20
2023-06-29T23:48:57.805Z,45.10
2023-06-29T23:54:01.235Z,45.20
2023-06-29T23:59:05.125Z,45.30
